createdAt,value
2018-03-04T00:01:15.209Z,99328.05
2018-03-04T00:03:41.178Z,99325.82
2018-03-04T00:06:07.123Z,99327.64
2018-03-04T00:08:33.070Z,99328.05
2018-03-04T00:10:59.008Z,99328.25
2018-03-04T00:13:24.974Z,99316.95
2018-03-04T00:15:50.946Z,99320.26
2018-03-04T00:18:16.902Z,99319.14
2018-03-04T00:20:42.869Z,99324.46
2018-03-04T00:23:08.855Z,99321.38
2018-03-04T00:25:34.823Z,99323.55
2018-03-04T00:28:00.774Z,99326.19
2018-03-04T00:30:26.726Z,99324.45
2018-03-04T00:32:52.741Z,99330.64
2018-03-04T00:35:18.721Z,99327.11
2018-03-04T00:37:44.674Z,99326.50
2018-03-04T00:40:10.614Z,99329.17
2018-03-04T00:42:36.563Z,99332.45
2018-03-04T00:45:02.532Z,99328.84
2018-03-04T00:47:28.540Z,99333.78
2018-03-04T00:49:54.506Z,99334.41
2018-03-04T00:52:20.447Z,99327.11
2018-03-04T00:54:46.414Z,99331.48
2018-03-04T00:57:12.354Z,99325.48
2018-03-04T00:59:38.306Z,99328.95
2018-03-04T01:02:04.365Z,99328.70
2018-03-04T01:04:30.302Z,99334.86
2018-03-04T01:06:56.246Z,99343.08
2018-03-04T01:09:22.194Z,99339.28
2018-03-04T01:11:48.170Z,99336.00
2018-03-04T01:14:14.177Z,99333.06
2018-03-04T01:16:40.126Z,99325.09
2018-03-04T01:19:06.088Z,99332.49
2018-03-04T01:21:32.050Z,99325.25
2018-03-04T01:23:58.001Z,99326.33
2018-03-04T01:26:23.967Z,99320.81
2018-03-04T01:28:49.907Z,99316.04
2018-03-04T01:31:15.857Z,99318.17
2018-03-04T01:33:41.818Z,99312.36
2018-03-04T01:36:07.762Z,99312.09
2018-03-04T01:38:33.772Z,99310.38
2018-03-04T01:40:59.719Z,99311.04
2018-03-04T01:43:25.679Z,99309.16
2018-03-04T01:45:51.644Z,99300.70
2018-03-04T01:48:17.578Z,99297.64
2018-03-04T01:50:43.542Z,99300.02
2018-03-04T01:53:09.630Z,99301.84
2018-03-04T01:55:35.594Z,99305.13
2018-03-04T01:58:01.548Z,99292.22
2018-03-04T02:00:27.507Z,99295.50
2018-03-04T02:02:53.445Z,99290.65
2018-03-04T02:05:19.413Z,99292.31
2018-03-04T02:07:45.371Z,99299.00
2018-03-04T02:10:11.331Z,99292.16
2018-03-04T02:12:37.289Z,99294.95
2018-03-04T02:15:03.243Z,99293.23
2018-03-04T02:17:29.198Z,99298.98
2018-03-04T02:19:55.139Z,99291.61
2018-03-04T02:22:21.085Z,99293.98
2018-03-04T02:24:47.026Z,99290.10
2018-03-04T02:27:12.969Z,99292.67
2018-03-04T02:29:38.909Z,99289.48
2018-03-04T02:32:04.862Z,99294.14
2018-03-04T02:34:30.811Z,99285.44
2018-03-04T02:36:56.739Z,99285.89
2018-03-04T02:39:22.692Z,99280.53
2018-03-04T02:41:48.655Z,99280.93
2018-03-04T02:44:14.613Z,99282.66
2018-03-04T02:46:40.552Z,99279.81
2018-03-04T02:49:06.504Z,99279.02
2018-03-04T02:51:32.446Z,99282.96
2018-03-04T02:53:58.398Z,99281.75
2018-03-04T02:56:24.341Z,99287.66
2018-03-04T02:58:50.286Z,99280.84
2018-03-04T03:01:16.225Z,99274.80
2018-03-04T03:03:42.173Z,99275.58
2018-03-04T03:06:08.123Z,99267.94
2018-03-04T03:08:34.067Z,99262.02
2018-03-04T03:11:00.002Z,99255.38
2018-03-04T03:13:25.945Z,99261.96
2018-03-04T03:15:51.893Z,99253.22
2018-03-04T03:18:17.838Z,99251.02
2018-03-04T03:20:43.773Z,99246.43
2018-03-04T03:23:09.750Z,99250.63
2018-03-04T03:25:35.685Z,99256.80
2018-03-04T03:28:01.630Z,99249.16
2018-03-04T03:30:28.558Z,99243.39
2018-03-04T03:32:54.526Z,99240.27
2018-03-04T03:35:20.467Z,99245.33
2018-03-04T03:37:46.419Z,99236.91
2018-03-04T03:40:12.361Z,99239.20
2018-03-04T03:42:38.302Z,99231.20
2018-03-04T03:45:04.349Z,99233.73
2018-03-04T03:47:30.305Z,99228.78
2018-03-04T03:49:56.297Z,99223.83
2018-03-04T03:52:22.263Z,99218.50
2018-03-04T03:54:48.211Z,99223.63
2018-03-04T03:57:14.171Z,99224.78
2018-03-04T03:59:40.213Z,99220.22
2018-03-04T04:02:06.174Z,99231.00
2018-03-04T04:04:32.111Z,99221.20
2018-03-04T04:06:58.051Z,99221.09
2018-03-04T04:09:24.006Z,99226.65
2018-03-04T04:11:49.948Z,99217.70
2018-03-04T04:14:15.917Z,99224.28
2018-03-04T04:16:41.871Z,99223.67
2018-03-04T04:19:07.848Z,99227.31
2018-03-04T04:21:33.797Z,99223.16
2018-03-04T04:23:59.730Z,99223.36
2018-03-04T04:26:25.661Z,99224.59
2018-03-04T04:28:51.606Z,99215.23
2018-03-04T04:31:17.588Z,99215.28
2018-03-04T04:33:43.517Z,99216.39
2018-03-04T04:36:09.469Z,99215.83
2018-03-04T04:38:35.498Z,99217.61
2018-03-04T04:41:02.346Z,99218.30
2018-03-04T04:43:28.287Z,99221.64
2018-03-04T04:45:54.230Z,99227.97
2018-03-04T04:48:20.186Z,99216.04
2018-03-04T04:50:46.134Z,99217.55
2018-03-04T04:53:12.106Z,99224.88
2018-03-04T04:55:38.051Z,99223.56
2018-03-04T04:58:04.005Z,99225.90
2018-03-04T05:00:29.952Z,99212.34
2018-03-04T05:02:55.892Z,99207.69
2018-03-04T05:05:21.835Z,99219.69
2018-03-04T05:07:47.774Z,99222.56
2018-03-04T05:10:13.735Z,99216.08
2018-03-04T05:12:39.682Z,99220.78
2018-03-04T05:15:05.630Z,99221.70
2018-03-04T05:17:31.574Z,99213.00
2018-03-04T05:19:57.531Z,99216.34
2018-03-04T05:22:23.481Z,99214.77
2018-03-04T05:24:49.443Z,99219.88
2018-03-04T05:27:15.381Z,99219.12
2018-03-04T05:29:41.323Z,99213.77
2018-03-04T05:32:07.281Z,99217.00
2018-03-04T05:34:33.217Z,99211.59
2018-03-04T05:36:59.165Z,99222.81
2018-03-04T05:39:25.110Z,99221.19
2018-03-04T05:41:51.053Z,99224.08
2018-03-04T05:44:16.992Z,99235.92
2018-03-04T05:46:42.958Z,99232.28
2018-03-04T05:49:08.915Z,99235.26
2018-03-04T05:51:34.847Z,99235.92
2018-03-04T05:54:00.790Z,99230.10
2018-03-04T05:56:26.734Z,99237.13
2018-03-04T05:58:52.665Z,99232.13
2018-03-04T06:01:18.609Z,99235.00
2018-03-04T06:03:44.558Z,99232.94
2018-03-04T06:06:10.524Z,99229.48
2018-03-04T06:08:36.497Z,99234.66
2018-03-04T06:11:02.507Z,99235.20
2018-03-04T06:13:28.398Z,99233.88
2018-03-04T06:15:54.358Z,99233.16
2018-03-04T06:18:20.298Z,99236.30
2018-03-04T06:20:46.245Z,99239.66
2018-03-04T06:23:12.208Z,99243.70
2018-03-04T06:25:38.153Z,99245.63
2018-03-04T06:28:04.102Z,99246.51
2018-03-04T06:30:30.058Z,99245.52
2018-03-04T06:32:56.000Z,99250.30
2018-03-04T06:35:21.949Z,99246.64
2018-03-04T06:37:47.888Z,99247.36
2018-03-04T06:40:13.833Z,99245.13
2018-03-04T06:42:39.799Z,99252.05
2018-03-04T06:45:05.771Z,99255.76
2018-03-04T06:47:31.717Z,99254.02
2018-03-04T06:49:57.709Z,99250.75
2018-03-04T06:52:23.593Z,99241.69
2018-03-04T06:54:49.534Z,99245.73
2018-03-04T06:57:15.487Z,99239.61
2018-03-04T06:59:41.422Z,99234.88
2018-03-04T07:02:07.369Z,99239.37
2018-03-04T07:04:33.311Z,99247.39
2018-03-04T07:06:59.275Z,99251.11
2018-03-04T07:09:25.220Z,99249.52
2018-03-04T07:11:51.189Z,99242.77
2018-03-04T07:14:17.146Z,99242.41
2018-03-04T07:16:43.128Z,99239.95
2018-03-04T07:19:09.076Z,99240.50
2018-03-04T07:21:35.036Z,99245.73
2018-03-04T07:24:00.978Z,99247.20
2018-03-04T07:26:26.939Z,99245.33
2018-03-04T07:28:52.895Z,99246.66
2018-03-04T07:31:18.845Z,99236.86
2018-03-04T07:33:44.790Z,99235.88
2018-03-04T07:36:10.739Z,99244.23
2018-03-04T07:38:36.773Z,99249.77
2018-03-04T07:41:02.746Z,99249.48
2018-03-04T07:43:28.687Z,99245.86
2018-03-04T07:45:54.749Z,99250.58
2018-03-04T07:48:20.753Z,99246.77
2018-03-04T07:50:46.702Z,99253.48
2018-03-04T07:53:12.793Z,99244.20
2018-03-04T07:55:38.748Z,99242.44
2018-03-04T07:58:04.710Z,99250.77
2018-03-04T08:00:30.649Z,99257.48
2018-03-04T08:02:56.609Z,99265.88
2018-03-04T08:05:22.650Z,99274.36
2018-03-04T08:07:48.610Z,99270.39
2018-03-04T08:10:14.558Z,99274.89
2018-03-04T08:12:40.505Z,99272.02
2018-03-04T08:15:06.481Z,99265.00
2018-03-04T08:17:32.426Z,99266.12
2018-03-04T08:19:58.389Z,99270.13
2018-03-04T08:22:24.340Z,99271.44
2018-03-04T08:24:50.277Z,99264.23
2018-03-04T08:27:16.258Z,99260.16
2018-03-04T08:29:42.226Z,99252.81
2018-03-04T08:32:08.250Z,99251.70
2018-03-04T08:34:34.227Z,99248.92
2018-03-04T08:37:00.205Z,99238.11
2018-03-04T08:39:26.233Z,99239.06
2018-03-04T08:41:52.191Z,99243.71
2018-03-04T08:44:18.126Z,99244.35
2018-03-04T08:46:44.074Z,99238.23
2018-03-04T08:49:10.026Z,99241.58
2018-03-04T08:51:35.993Z,99246.44
2018-03-04T08:54:01.943Z,99251.94
2018-03-04T08:56:27.882Z,99254.05
2018-03-04T08:58:53.822Z,99249.39
2018-03-04T09:01:19.769Z,99247.47
2018-03-04T09:03:45.826Z,99250.27
2018-03-04T09:06:11.774Z,99254.55
2018-03-04T09:08:37.752Z,99259.55
2018-03-04T09:11:03.657Z,99251.39
2018-03-04T09:13:29.618Z,99246.61
2018-03-04T09:15:55.570Z,99247.05
2018-03-04T09:18:21.538Z,99246.52
2018-03-04T09:20:47.488Z,99245.77
2018-03-04T09:23:13.541Z,99244.41
2018-03-04T09:25:39.511Z,99242.39
2018-03-04T09:28:05.437Z,99246.82
2018-03-04T09:30:31.378Z,99248.16
2018-03-04T09:32:57.350Z,99242.32
2018-03-04T09:35:23.382Z,99242.20
2018-03-04T09:37:49.337Z,99243.09
2018-03-04T09:40:15.274Z,99243.34
2018-03-04T09:42:41.250Z,99245.33
2018-03-04T09:45:07.220Z,99232.93
2018-03-04T09:47:33.193Z,99232.89
2018-03-04T09:49:59.239Z,99232.89
2018-03-04T09:52:25.213Z,99228.38
2018-03-04T09:54:51.165Z,99223.16
2018-03-04T09:57:17.255Z,99219.86
2018-03-04T09:59:43.221Z,99222.04
2018-03-04T10:02:09.192Z,99218.76
2018-03-04T10:04:35.138Z,99211.77
2018-03-04T10:07:01.103Z,99218.86
2018-03-04T10:09:27.093Z,99212.41
2018-03-04T10:11:53.057Z,99200.34
2018-03-04T10:14:19.000Z,99200.87
2018-03-04T10:16:44.950Z,99195.41
2018-03-04T10:19:10.945Z,99189.64
2018-03-04T10:21:36.919Z,99193.41
2018-03-04T10:24:02.877Z,99192.83
2018-03-04T10:26:28.849Z,99194.98
2018-03-04T10:28:54.818Z,99191.19
2018-03-04T10:31:20.794Z,99192.91
2018-03-04T10:33:46.780Z,99188.20
2018-03-04T10:36:12.769Z,99191.05
2018-03-04T10:38:38.730Z,99191.19
2018-03-04T10:41:04.672Z,99190.12
2018-03-04T10:43:30.670Z,99185.81
2018-03-04T10:45:56.626Z,99182.88
2018-03-04T10:48:22.622Z,99188.69
2018-03-04T10:50:48.581Z,99182.81
2018-03-04T10:53:14.560Z,99180.92
2018-03-04T10:55:40.516Z,99183.15
2018-03-04T10:58:06.486Z,99183.86
2018-03-04T11:00:32.431Z,99174.78
2018-03-04T11:02:58.375Z,99173.49
2018-03-04T11:05:24.418Z,99173.33
2018-03-04T11:07:50.368Z,99166.72
2018-03-04T11:10:16.383Z,99161.81
2018-03-04T11:12:42.406Z,99163.05
2018-03-04T11:15:08.349Z,99167.92
2018-03-04T11:17:34.299Z,99159.91
2018-03-04T11:20:00.273Z,99166.03
2018-03-04T11:22:26.326Z,99157.13
2018-03-04T11:24:52.278Z,99156.72
2018-03-04T11:27:18.315Z,99150.89
2018-03-04T11:29:44.303Z,99158.22
2018-03-04T11:32:10.291Z,99161.39
2018-03-04T11:34:36.266Z,99149.83
2018-03-04T11:37:02.311Z,99141.09
2018-03-04T11:39:28.257Z,99136.19
2018-03-04T11:41:54.205Z,99133.72
2018-03-04T11:44:20.186Z,99136.47
2018-03-04T11:46:46.138Z,99131.46
2018-03-04T11:49:12.086Z,99129.74
2018-03-04T11:51:38.031Z,99122.61
2018-03-04T11:54:04.035Z,99119.57
2018-03-04T11:56:30.005Z,99113.96
2018-03-04T11:58:56.042Z,99107.81
2018-03-04T12:01:22.009Z,99097.81
2018-03-04T12:03:47.978Z,99093.39
2018-03-04T12:06:13.954Z,99090.55
2018-03-04T12:08:39.902Z,99079.91
2018-03-04T12:11:05.918Z,99083.09
2018-03-04T12:13:31.910Z,99084.27
2018-03-04T12:15:57.854Z,99078.06
2018-03-04T12:18:23.870Z,99069.73
2018-03-04T12:20:49.861Z,99065.52
2018-03-04T12:23:15.864Z,99060.30
2018-03-04T12:25:41.848Z,99056.59
2018-03-04T12:28:07.909Z,99058.45
2018-03-04T12:30:33.841Z,99056.09
2018-03-04T12:32:59.837Z,99044.56
2018-03-04T12:35:25.883Z,99050.30
2018-03-04T12:37:51.942Z,99038.90
2018-03-04T12:40:17.902Z,99044.16
2018-03-04T12:42:43.872Z,99046.02
2018-03-04T12:45:09.837Z,99034.47
2018-03-04T12:47:35.802Z,99028.52
2018-03-04T12:50:01.781Z,99029.30
2018-03-04T12:52:27.737Z,99027.56
2018-03-04T12:54:53.686Z,99020.20
2018-03-04T12:57:19.729Z,99023.07
2018-03-04T12:59:45.699Z,99018.52
2018-03-04T13:02:11.639Z,99016.36
2018-03-04T13:04:37.591Z,99017.56
2018-03-04T13:07:03.650Z,99017.44
2018-03-04T13:09:29.624Z,99021.33
2018-03-04T13:11:55.585Z,99018.70
2018-03-04T13:14:21.627Z,99008.87
2018-03-04T13:16:47.581Z,99002.99
2018-03-04T13:19:13.541Z,98998.79
2018-03-04T13:21:39.490Z,98999.17
2018-03-04T13:24:05.427Z,98998.98
2018-03-04T13:26:31.390Z,98996.92
2018-03-04T13:28:57.342Z,98995.58
2018-03-04T13:31:23.301Z,98996.11
2018-03-04T13:33:49.268Z,98981.97
2018-03-04T13:36:15.285Z,98983.30
2018-03-04T13:38:41.199Z,98980.28
2018-03-04T13:41:07.147Z,98980.81
2018-03-04T13:43:33.102Z,98975.24
2018-03-04T13:45:59.139Z,98979.49
2018-03-04T13:48:25.086Z,98980.01
2018-03-04T13:50:51.026Z,98969.38
2018-03-04T13:53:16.985Z,98965.13
2018-03-04T13:55:42.925Z,98959.45
2018-03-04T13:58:08.870Z,98957.92
2018-03-04T14:00:34.858Z,98958.07
2018-03-04T14:03:00.921Z,98952.38
2018-03-04T14:05:26.889Z,98953.86
2018-03-04T14:07:52.834Z,98962.66
2018-03-04T14:10:18.810Z,98947.80
2018-03-04T14:12:44.762Z,98946.21
2018-03-04T14:15:10.737Z,98943.83
2018-03-04T14:17:36.672Z,98944.36
2018-03-04T14:20:02.618Z,98948.61
2018-03-04T14:22:28.556Z,98941.49
2018-03-04T14:24:54.515Z,98940.39
2018-03-04T14:27:20.517Z,98942.36
2018-03-04T14:29:46.478Z,98939.09
2018-03-04T14:32:12.441Z,98936.63
2018-03-04T14:34:38.408Z,98935.56
2018-03-04T14:37:04.365Z,98932.55
2018-03-04T14:39:30.345Z,98932.48
2018-03-04T14:41:56.304Z,98924.28
2018-03-04T14:44:22.265Z,98925.05
2018-03-04T14:46:48.213Z,98917.53
2018-03-04T14:49:14.210Z,98904.73
2018-03-04T14:51:40.149Z,98900.58
2018-03-04T14:54:06.114Z,98892.65
2018-03-04T14:56:32.050Z,98887.97
2018-03-04T14:58:58.008Z,98890.67
2018-03-04T15:01:23.980Z,98874.97
2018-03-04T15:03:49.951Z,98883.13
2018-03-04T15:06:15.943Z,98879.38
2018-03-04T15:08:41.896Z,98878.74
2018-03-04T15:11:07.838Z,98882.92
2018-03-04T15:13:33.774Z,98868.05
2018-03-04T15:15:59.722Z,98875.22
2018-03-04T15:18:25.695Z,98870.69
2018-03-04T15:20:51.649Z,98863.62
2018-03-04T15:23:17.653Z,98865.42
2018-03-04T15:25:43.668Z,98860.28
2018-03-04T15:28:09.613Z,98861.41
2018-03-04T15:30:35.586Z,98862.78
2018-03-04T15:33:01.543Z,98857.89
2018-03-04T15:35:27.516Z,98855.28
2018-03-04T15:37:53.471Z,98862.09
2018-03-04T15:40:19.427Z,98863.87
2018-03-04T15:42:45.418Z,98862.09
2018-03-04T15:45:11.496Z,98863.52
2018-03-04T15:47:37.459Z,98860.72
2018-03-04T15:50:03.423Z,98866.36
2018-03-04T15:52:29.407Z,98853.98
2018-03-04T15:54:55.361Z,98861.41
2018-03-04T15:57:21.342Z,98858.93
2018-03-04T15:59:47.392Z,98860.04
2018-03-04T16:02:13.394Z,98854.19
2018-03-04T16:04:39.302Z,98859.41
2018-03-04T16:07:05.300Z,98854.91
2018-03-04T16:09:31.248Z,98844.51
2018-03-04T16:11:57.193Z,98848.13
2018-03-04T16:14:23.225Z,98832.05
2018-03-04T16:16:49.181Z,98838.33
2018-03-04T16:19:15.156Z,98822.45
2018-03-04T16:21:41.196Z,98821.25
2018-03-04T16:24:07.158Z,98820.97
2018-03-04T16:26:33.147Z,98818.72
2018-03-04T16:28:59.124Z,98821.94
2018-03-04T16:31:25.114Z,98819.36
2018-03-04T16:33:51.061Z,98817.02
2018-03-04T16:36:16.993Z,98810.83
2018-03-04T16:38:42.934Z,98812.45
2018-03-04T16:41:08.910Z,98817.25
2018-03-04T16:43:34.866Z,98813.94
2018-03-04T16:46:00.809Z,98814.66
2018-03-04T16:48:26.768Z,98819.14
2018-03-04T16:50:52.847Z,98809.16
2018-03-04T16:53:18.831Z,98817.41
2018-03-04T16:55:44.800Z,98817.35
2018-03-04T16:58:10.768Z,98834.08
2018-03-04T17:00:36.719Z,98835.91
2018-03-04T17:03:02.659Z,98855.94
2018-03-04T17:05:28.621Z,98853.66
2018-03-04T17:07:54.643Z,98858.37
2018-03-04T17:10:20.607Z,98829.94
2018-03-04T17:12:46.573Z,98829.54
2018-03-04T17:15:12.548Z,98836.08
2018-03-04T17:17:38.510Z,98809.70
2018-03-04T17:20:04.489Z,98787.56
2018-03-04T17:22:30.529Z,98806.16
2018-03-04T17:24:56.507Z,98786.27
2018-03-04T17:27:22.468Z,98783.48
2018-03-04T17:29:48.434Z,98769.98
2018-03-04T17:32:14.388Z,98772.11
2018-03-04T17:34:40.393Z,98777.72
2018-03-04T17:37:06.359Z,98785.62
2018-03-04T17:39:32.338Z,98795.88
2018-03-04T17:41:58.329Z,98799.55
2018-03-04T17:44:24.322Z,98795.24
2018-03-04T17:46:50.278Z,98790.96
2018-03-04T17:49:16.258Z,98795.00
2018-03-04T17:51:42.254Z,98789.59
2018-03-04T17:54:08.211Z,98784.64
2018-03-04T17:56:34.206Z,98788.31
2018-03-04T17:59:00.177Z,98795.64
2018-03-04T18:01:26.145Z,98799.52
2018-03-04T18:03:52.110Z,98795.28
2018-03-04T18:06:18.062Z,98796.95
2018-03-04T18:08:44.067Z,98800.47
2018-03-04T18:11:10.014Z,98804.00
2018-03-04T18:13:35.983Z,98805.03
2018-03-04T18:16:01.942Z,98803.37
2018-03-04T18:18:27.951Z,98806.69
2018-03-04T18:20:53.934Z,98801.11
2018-03-04T18:23:19.990Z,98806.76
2018-03-04T18:25:45.991Z,98800.68
2018-03-04T18:28:11.951Z,98809.50
2018-03-04T18:30:37.926Z,98795.48
2018-03-04T18:33:03.894Z,98796.25
2018-03-04T18:35:29.902Z,98790.03
2018-03-04T18:37:55.889Z,98784.15
2018-03-04T18:40:21.847Z,98773.15
2018-03-04T18:42:47.808Z,98763.58
2018-03-04T18:45:13.850Z,98756.30
2018-03-04T18:47:39.866Z,98750.27
2018-03-04T18:50:05.818Z,98745.41
2018-03-04T18:52:31.776Z,98734.95
2018-03-04T18:54:57.758Z,98741.13
2018-03-04T18:57:23.727Z,98728.93
2018-03-04T18:59:49.682Z,98725.30
2018-03-04T19:02:15.672Z,98724.00
2018-03-04T19:04:41.697Z,98725.89
2018-03-04T19:07:07.671Z,98726.40
2018-03-04T19:09:33.652Z,98720.95
2018-03-04T19:11:59.618Z,98724.62
2018-03-04T19:14:25.617Z,98731.72
2018-03-04T19:16:51.578Z,98718.99
2018-03-04T19:19:17.546Z,98720.50
2018-03-04T19:21:43.515Z,98713.12
2018-03-04T19:24:09.495Z,98707.25
2018-03-04T19:26:35.485Z,98711.67
2018-03-04T19:29:01.503Z,98705.59
2018-03-04T19:31:27.480Z,98691.09
2018-03-04T19:33:53.435Z,98689.97
2018-03-04T19:36:19.422Z,98695.74
2018-03-04T19:38:45.372Z,98690.86
2018-03-04T19:41:11.368Z,98693.72
2018-03-04T19:43:37.325Z,98696.27
2018-03-04T19:46:03.289Z,98700.39
2018-03-04T19:48:29.247Z,98703.47
2018-03-04T19:50:55.193Z,98708.62
2018-03-04T19:53:21.187Z,98716.30
2018-03-04T19:55:47.155Z,98722.73
2018-03-04T19:58:13.111Z,98723.66
2018-03-04T20:00:39.123Z,98727.14
2018-03-04T20:03:05.098Z,98727.87
2018-03-04T20:05:31.050Z,98727.73
2018-03-04T20:07:57.081Z,98733.20
2018-03-04T20:10:23.031Z,98729.94
2018-03-04T20:12:49.004Z,98723.17
2018-03-04T20:15:15.028Z,98715.59
2018-03-04T20:17:40.981Z,98716.69
2018-03-04T20:20:06.929Z,98713.59
2018-03-04T20:22:32.886Z,98726.14
2018-03-04T20:24:58.838Z,98721.38
2018-03-04T20:27:24.879Z,98723.28
2018-03-04T20:29:50.831Z,98727.75
2018-03-04T20:32:16.799Z,98720.45
2018-03-04T20:34:42.825Z,98702.58
2018-03-04T20:37:08.782Z,98695.80
2018-03-04T20:39:34.749Z,98694.78
2018-03-04T20:42:00.691Z,98676.55
2018-03-04T20:44:26.664Z,98689.41
2018-03-04T20:46:52.615Z,98715.63
2018-03-04T20:49:18.593Z,98720.73
2018-03-04T20:51:44.573Z,98722.66
2018-03-04T20:54:10.516Z,98740.08
2018-03-04T20:56:36.497Z,98745.87
2018-03-04T20:59:02.466Z,98741.66
2018-03-04T21:01:28.780Z,98756.83
2018-03-04T21:03:54.725Z,98763.36
2018-03-04T21:06:20.786Z,98761.57
2018-03-04T21:08:46.748Z,98775.19
2018-03-04T21:11:12.745Z,98778.23
2018-03-04T21:13:38.697Z,98784.81
2018-03-04T21:16:04.651Z,98794.05
2018-03-04T21:18:30.625Z,98794.66
2018-03-04T21:20:56.558Z,98800.00
2018-03-04T21:23:22.648Z,98804.91
2018-03-04T21:25:48.551Z,98811.98
2018-03-04T21:28:14.531Z,98814.61
2018-03-04T21:30:40.514Z,98822.45
2018-03-04T21:33:06.481Z,98818.14
2018-03-04T21:35:32.442Z,98808.52
2018-03-04T21:37:58.402Z,98821.98
2018-03-04T21:40:24.360Z,98817.61
2018-03-04T21:42:50.300Z,98820.35
2018-03-04T21:45:16.308Z,98808.69
2018-03-04T21:47:42.250Z,98822.98
2018-03-04T21:50:08.233Z,98827.52
2018-03-04T21:52:34.189Z,98831.05
2018-03-04T21:55:00.151Z,98830.14
2018-03-04T21:57:26.090Z,98833.35
2018-03-04T21:59:52.033Z,98826.23
2018-03-04T22:02:17.997Z,98828.64
2018-03-04T22:04:43.936Z,98830.59
2018-03-04T22:07:10.032Z,98837.20
2018-03-04T22:09:36.023Z,98835.45
2018-03-04T22:12:01.986Z,98842.17
2018-03-04T22:14:27.975Z,98847.44
2018-03-04T22:16:53.932Z,98849.92
2018-03-04T22:19:19.930Z,98853.59
2018-03-04T22:21:45.877Z,98859.59
2018-03-04T22:24:11.831Z,98864.28
2018-03-04T22:26:37.853Z,98875.35
2018-03-04T22:29:03.830Z,98878.29
2018-03-04T22:31:29.787Z,98881.20
2018-03-04T22:33:55.731Z,98888.02
2018-03-04T22:36:21.674Z,98891.56
2018-03-04T22:38:47.633Z,98897.48
2018-03-04T22:41:13.607Z,98903.23
2018-03-04T22:43:39.547Z,98914.81
2018-03-04T22:46:05.481Z,98916.59
2018-03-04T22:48:31.436Z,98917.82
2018-03-04T22:50:57.381Z,98928.82
2018-03-04T22:53:23.342Z,98933.05
2018-03-04T22:55:49.420Z,98936.16
2018-03-04T22:58:15.370Z,98941.91
2018-03-04T23:00:41.309Z,98949.70
2018-03-04T23:03:07.325Z,98941.87
2018-03-04T23:05:33.275Z,98945.05
2018-03-04T23:07:59.213Z,98949.08
2018-03-04T23:10:25.179Z,98946.84
2018-03-04T23:12:51.166Z,98946.67
2018-03-04T23:15:18.326Z,98949.44
2018-03-04T23:17:44.303Z,98952.69
2018-03-04T23:20:10.255Z,98954.61
2018-03-04T23:22:36.203Z,98951.95
2018-03-04T23:25:02.548Z,98953.42
2018-03-04T23:27:28.585Z,98958.89
2018-03-04T23:29:54.550Z,98959.27
2018-03-04T23:32:21.503Z,98962.31
2018-03-04T23:34:47.465Z,98967.04
2018-03-04T23:37:13.464Z,98961.47
2018-03-04T23:39:39.459Z,98961.33
2018-03-04T23:42:05.416Z,98957.66
2018-03-04T23:44:31.406Z,98974.74
2018-03-04T23:46:57.368Z,98977.55
2018-03-04T23:49:23.310Z,98972.84
2018-03-04T23:51:49.305Z,98976.70
2018-03-04T23:54:15.249Z,98987.20
2018-03-04T23:56:41.202Z,98986.63
2018-03-04T23:59:07.155Z,98986.59
